Time;durP1;ratioP1;P1;durP2;ratioP2;P2;SDS_P1;SDS_P2;PMS_P1;PMS_P2;Temp;Humidity;BMP_temperature;BMP_pressure;BME280_temperature;BME280_humidity;BME280_pressure;Samples;Min_cycle;Max_cycle;Signal;HPM_P1;HPM_P2
2022/04/16 00:04:18;;;;;;;1.55;1.38;;;;;;;;;;10367054;27;20605;-67
2022/04/16 00:09:18;;;;;;;1.30;1.20;;;;;;;;;;10374817;28;20045;-66
2022/04/16 00:14:19;;;;;;;1.45;1.27;;;;;;;;;;10372886;27;20128;-66
2022/04/16 00:19:20;;;;;;;2.28;1.10;;;;;;;;;;10374507;28;20033;-67
2022/04/16 00:24:20;;;;;;;1.27;1.10;;;;;;;;;;10378214;28;20198;-67
2022/04/16 00:29:20;;;;;;;1.20;1.10;;;;;;;;;;10361165;28;20533;-66
2022/04/16 00:34:20;;;;;;;1.40;1.27;;;;;;;;;;10352515;28;20046;-66
2022/04/16 00:39:21;;;;;;;1.53;1.20;;;;;;;;;;10384540;28;20492;-67
2022/04/16 00:44:21;;;;;;;1.27;1.10;;;;;;;;;;10378211;28;20444;-67
2022/04/16 00:49:22;;;;;;;1.50;1.00;;;;;;;;;;10372355;27;20045;-68
2022/04/16 00:54:22;;;;;;;1.33;1.20;;;;;;;;;;10370621;28;20360;-67
2022/04/16 00:59:23;;;;;;;1.10;0.97;;;;;;;;;;10362726;28;20468;-68
2022/04/16 01:04:24;;;;;;;1.17;1.00;;;;;;;;;;10362427;28;20296;-67
2022/04/16 01:09:24;;;;;;;1.25;0.80;;;;;;;;;;10385312;28;20269;-66
2022/04/16 01:14:25;;;;;;;1.15;1.05;;;;;;;;;;10388295;28;20080;-68
2022/04/16 01:19:25;;;;;;;1.15;1.05;;;;;;;;;;10372642;28;20046;-67
2022/04/16 01:24:26;;;;;;;1.00;0.90;;;;;;;;;;10363477;28;20076;-67
2022/04/16 01:29:26;;;;;;;1.50;1.00;;;;;;;;;;10372597;28;20137;-67
2022/04/16 01:34:27;;;;;;;1.10;1.00;;;;;;;;;;10352649;28;20050;-69
2022/04/16 01:39:28;;;;;;;1.00;1.00;;;;;;;;;;10361586;28;20034;-67
2022/04/16 01:44:29;;;;;;;1.20;0.80;;;;;;;;;;10390167;28;20554;-68
2022/04/16 01:49:30;;;;;;;2.55;1.00;;;;;;;;;;10358043;28;20114;-67
2022/04/16 01:54:31;;;;;;;1.23;0.90;;;;;;;;;;10362539;28;20041;-66
2022/04/16 01:59:31;;;;;;;1.17;1.00;;;;;;;;;;10363400;28;20481;-66
2022/04/16 02:04:32;;;;;;;0.80;0.80;;;;;;;;;;10377908;27;20049;-66
2022/04/16 02:09:33;;;;;;;1.10;1.00;;;;;;;;;;10364793;28;20443;-66
2022/04/16 02:14:34;;;;;;;1.10;1.00;;;;;;;;;;10377826;28;20099;-67
2022/04/16 02:19:36;;;;;;;1.27;0.90;;;;;;;;;;10364262;28;20049;-66
2022/04/16 02:24:38;;;;;;;1.05;0.95;;;;;;;;;;10370885;27;20141;-66
2022/04/16 02:29:38;;;;;;;1.23;0.95;;;;;;;;;;10364427;28;20157;-66
2022/04/16 02:34:39;;;;;;;1.03;0.83;;;;;;;;;;10363587;27;20071;-66
2022/04/16 02:39:39;;;;;;;1.00;0.90;;;;;;;;;;10468797;27;20419;-67
2022/04/16 02:49:58;;;;;;;0.98;0.93;;;;;;;;;;10361235;28;20409;-66
2022/04/16 02:54:59;;;;;;;1.10;1.00;;;;;;;;;;10360036;28;20054;-66
2022/04/16 02:59:59;;;;;;;1.00;0.90;;;;;;;;;;10363848;28;20099;-66
2022/04/16 03:04:59;;;;;;;1.30;1.00;;;;;;;;;;10341314;28;20095;-66
2022/04/16 03:10:02;;;;;;;1.50;0.80;;;;;;;;;;10381108;28;20042;-68
2022/04/16 03:20:22;;;;;;;0.90;0.90;;;;;;;;;;10387053;28;20471;-67
2022/04/16 03:25:22;;;;;;;1.23;1.00;;;;;;;;;;10381205;28;20073;-67
2022/04/16 03:30:23;;;;;;;1.73;1.08;;;;;;;;;;10367406;28;20124;-67
2022/04/16 03:35:24;;;;;;;1.23;0.90;;;;;;;;;;10372707;28;20049;-67
2022/04/16 03:40:26;;;;;;;1.20;0.85;;;;;;;;;;10369425;28;20053;-67
2022/04/16 03:45:31;;;;;;;1.10;0.90;;;;;;;;;;10381631;27;20377;-67
2022/04/16 03:50:32;;;;;;;1.00;0.85;;;;;;;;;;10389392;28;20582;-67
2022/04/16 04:00:52;;;;;;;1.48;0.98;;;;;;;;;;10373260;28;20401;-67
2022/04/16 04:05:53;;;;;;;0.70;0.70;;;;;;;;;;10364583;28;20068;-67
2022/04/16 04:10:53;;;;;;;0.98;0.88;;;;;;;;;;10374638;28;20305;-67
2022/04/16 04:15:54;;;;;;;1.30;1.10;;;;;;;;;;10377974;28;20069;-67
2022/04/16 04:20:56;;;;;;;1.13;1.03;;;;;;;;;;10380828;28;20690;-67
2022/04/16 04:25:56;;;;;;;0.73;0.73;;;;;;;;;;10371882;28;20076;-67
2022/04/16 04:30:57;;;;;;;1.33;1.00;;;;;;;;;;10383167;28;20190;-67
2022/04/16 04:35:57;;;;;;;0.80;0.80;;;;;;;;;;10402614;28;20049;-67
2022/04/16 04:40:58;;;;;;;1.10;1.00;;;;;;;;;;10376142;28;20072;-67
2022/04/16 04:45:59;;;;;;;0.90;0.80;;;;;;;;;;10368529;28;20285;-67
2022/04/16 04:50:59;;;;;;;0.93;0.80;;;;;;;;;;10367261;28;20042;-67
2022/04/16 04:55:59;;;;;;;1.57;0.90;;;;;;;;;;10352094;28;20135;-67
2022/04/16 05:01:00;;;;;;;0.90;0.80;;;;;;;;;;10372189;27;20046;-67
2022/04/16 05:06:00;;;;;;;1.00;0.90;;;;;;;;;;10370853;28;20068;-67
2022/04/16 05:11:00;;;;;;;1.05;0.82;;;;;;;;;;10365179;28;20034;-67
2022/04/16 05:16:00;;;;;;;0.70;0.70;;;;;;;;;;10366660;28;20488;-67
2022/04/16 05:21:01;;;;;;;1.10;1.00;;;;;;;;;;10384619;28;20082;-67
2022/04/16 05:26:02;;;;;;;0.90;0.80;;;;;;;;;;10351814;28;20055;-67
2022/04/16 05:31:03;;;;;;;1.00;0.90;;;;;;;;;;10370898;28;20034;-67
2022/04/16 05:36:03;;;;;;;1.05;0.95;;;;;;;;;;10357842;28;20069;-67
2022/04/16 05:41:04;;;;;;;1.02;0.93;;;;;;;;;;10367095;28;20384;-66
2022/04/16 05:46:04;;;;;;;1.23;1.13;;;;;;;;;;10373917;28;20548;-65
2022/04/16 05:51:04;;;;;;;1.20;1.05;;;;;;;;;;10382499;28;20042;-66
2022/04/16 05:56:05;;;;;;;1.17;1.00;;;;;;;;;;10357089;28;20673;-65
2022/04/16 06:01:06;;;;;;;1.33;1.23;;;;;;;;;;10363263;28;20067;-65
2022/04/16 06:06:07;;;;;;;1.95;1.27;;;;;;;;;;10368443;28;20095;-66
2022/04/16 06:11:07;;;;;;;4.20;1.50;;;;;;;;;;10367716;28;20046;-66
2022/04/16 06:16:08;;;;;;;2.47;2.13;;;;;;;;;;10357266;28;20049;-65
2022/04/16 06:21:09;;;;;;;4.63;3.20;;;;;;;;;;10363467;28;20392;-65
2022/04/16 06:26:09;;;;;;;4.35;3.95;;;;;;;;;;10360454;28;20054;-66
2022/04/16 06:31:09;;;;;;;3.87;3.40;;;;;;;;;;10361867;28;20777;-65
2022/04/16 06:36:10;;;;;;;3.88;3.45;;;;;;;;;;10353216;28;20042;-66
2022/04/16 06:41:10;;;;;;;4.20;3.70;;;;;;;;;;10363596;28;20023;-65
2022/04/16 06:46:11;;;;;;;4.47;3.40;;;;;;;;;;10396400;28;20187;-65
2022/04/16 06:51:12;;;;;;;4.22;3.53;;;;;;;;;;10398372;28;20289;-65
2022/04/16 06:56:12;;;;;;;4.72;3.60;;;;;;;;;;10358930;28;20046;-66
2022/04/16 07:01:12;;;;;;;5.78;3.20;;;;;;;;;;10388809;28;20083;-66
2022/04/16 07:06:13;;;;;;;4.55;3.00;;;;;;;;;;10389261;28;20052;-65
2022/04/16 07:11:13;;;;;;;4.53;3.70;;;;;;;;;;10400015;28;20131;-63
2022/04/16 07:16:13;;;;;;;4.00;3.53;;;;;;;;;;10428181;28;20056;-66
2022/04/16 07:21:13;;;;;;;4.20;3.25;;;;;;;;;;10376085;28;20058;-65
2022/04/16 07:26:14;;;;;;;5.70;3.70;;;;;;;;;;10377958;28;20047;-65
2022/04/16 07:31:14;;;;;;;6.03;3.30;;;;;;;;;;10399511;28;20050;-65
2022/04/16 07:36:14;;;;;;;5.47;3.30;;;;;;;;;;10403350;28;20078;-65
2022/04/16 07:41:15;;;;;;;4.75;3.33;;;;;;;;;;10411134;28;20038;-65
2022/04/16 07:46:18;;;;;;;4.22;3.55;;;;;;;;;;10375331;28;20046;-64
2022/04/16 07:51:19;;;;;;;4.10;3.30;;;;;;;;;;10434476;28;20032;-65
2022/04/16 07:56:19;;;;;;;5.07;3.10;;;;;;;;;;10407930;28;20041;-65
2022/04/16 08:01:20;;;;;;;4.25;3.35;;;;;;;;;;10379892;28;20042;-66
2022/04/16 08:06:21;;;;;;;10.38;3.67;;;;;;;;;;10373290;28;20070;-67
2022/04/16 08:11:21;;;;;;;12.68;4.38;;;;;;;;;;10396330;28;20127;-71
2022/04/16 08:16:21;;;;;;;14.68;4.22;;;;;;;;;;10438364;27;20052;-70
2022/04/16 08:21:22;;;;;;;9.70;4.00;;;;;;;;;;10416704;27;20513;-71
2022/04/16 08:26:23;;;;;;;11.57;4.30;;;;;;;;;;10386553;28;20153;-71
2022/04/16 08:31:23;;;;;;;10.65;3.78;;;;;;;;;;10376661;28;20485;-71
2022/04/16 08:36:24;;;;;;;8.13;3.60;;;;;;;;;;10391297;28;20086;-70
2022/04/16 08:41:25;;;;;;;11.93;4.10;;;;;;;;;;10364543;28;20048;-71
2022/04/16 08:46:26;;;;;;;10.10;3.83;;;;;;;;;;10372507;28;20390;-71
2022/04/16 08:51:27;;;;;;;11.40;4.07;;;;;;;;;;10365531;28;20038;-69
2022/04/16 08:56:28;;;;;;;5.45;3.50;;;;;;;;;;10365335;27;20042;-73
2022/04/16 09:01:28;;;;;;;7.05;3.47;;;;;;;;;;10386673;28;20061;-71
2022/04/16 09:06:28;;;;;;;4.70;3.33;;;;;;;;;;10366474;28;20064;-71
2022/04/16 09:11:28;;;;;;;5.30;3.27;;;;;;;;;;10377806;27;20094;-70
2022/04/16 09:16:30;;;;;;;6.60;3.22;;;;;;;;;;10368962;28;20128;-69
2022/04/16 09:21:31;;;;;;;6.68;3.47;;;;;;;;;;10374588;28;20049;-71
2022/04/16 09:26:35;;;;;;;6.30;2.88;;;;;;;;;;10371279;28;20054;-70
2022/04/16 09:31:38;;;;;;;5.18;2.75;;;;;;;;;;10373239;28;20038;-70
2022/04/16 09:36:39;;;;;;;5.22;2.90;;;;;;;;;;10368223;28;20127;-71
2022/04/16 09:41:44;;;;;;;6.13;3.10;;;;;;;;;;10384972;28;20087;-70
2022/04/16 09:46:45;;;;;;;4.53;2.60;;;;;;;;;;10375971;28;20092;-72
2022/04/16 09:51:46;;;;;;;7.20;3.33;;;;;;;;;;10369078;28;20038;-71
2022/04/16 09:56:47;;;;;;;5.57;3.20;;;;;;;;;;10377209;28;20457;-71
2022/04/16 10:01:48;;;;;;;4.53;2.75;;;;;;;;;;10366414;28;20117;-71
2022/04/16 10:06:48;;;;;;;4.20;2.75;;;;;;;;;;10368432;28;20426;-73
2022/04/16 10:17:28;;;;;;;3.17;2.58;;;;;;;;;;10376132;28;20041;-71
2022/04/16 10:22:28;;;;;;;4.90;2.80;;;;;;;;;;10373928;28;20062;-71
2022/04/16 10:27:29;;;;;;;3.42;2.50;;;;;;;;;;10370173;28;20579;-71
2022/04/16 10:32:41;;;;;;;2.80;2.50;;;;;;;;;;10359642;27;20171;-70
2022/04/16 10:37:43;;;;;;;3.28;2.28;;;;;;;;;;10380401;28;20400;-70
2022/04/16 10:42:50;;;;;;;3.50;2.87;;;;;;;;;;10364582;28;20046;-71
2022/04/16 10:47:52;;;;;;;2.90;2.10;;;;;;;;;;10368833;28;20477;-70
2022/04/16 10:53:00;;;;;;;2.80;1.63;;;;;;;;;;10367596;28;20052;-73
2022/04/16 10:58:03;;;;;;;2.92;1.48;;;;;;;;;;10359365;28;20457;-69
2022/04/16 11:03:10;;;;;;;1.80;1.40;;;;;;;;;;10368063;28;20054;-70
2022/04/16 11:08:14;;;;;;;2.28;1.50;;;;;;;;;;10365436;28;20050;-70
2022/04/16 11:13:15;;;;;;;3.20;1.20;;;;;;;;;;10387208;27;20041;-70
2022/04/16 11:18:16;;;;;;;1.90;1.70;;;;;;;;;;10370221;28;21016;-70
2022/04/16 11:23:16;;;;;;;1.83;1.33;;;;;;;;;;10362600;28;20061;-69
2022/04/16 11:39:01;;;;;;;5.20;2.65;;;;;;;;;;10363631;27;20045;-70
2022/04/16 11:44:02;;;;;;;4.75;2.33;;;;;;;;;;10372486;28;20581;-69
2022/04/16 11:49:03;;;;;;;26.75;8.93;;;;;;;;;;10379678;28;20045;-70
2022/04/16 11:54:04;;;;;;;37.05;11.95;;;;;;;;;;10376278;28;20145;-69
2022/04/16 11:59:04;;;;;;;17.15;6.40;;;;;;;;;;10387965;28;20047;-69
2022/04/16 12:04:07;;;;;;;8.20;3.67;;;;;;;;;;10374729;28;20050;-69
2022/04/16 12:09:11;;;;;;;4.20;2.50;;;;;;;;;;10372964;28;20451;-69
2022/04/16 12:14:16;;;;;;;3.63;2.20;;;;;;;;;;10369086;28;20053;-70
2022/04/16 12:19:16;;;;;;;2.58;2.00;;;;;;;;;;10368805;28;20509;-71
2022/04/16 12:24:24;;;;;;;2.78;1.88;;;;;;;;;;10365209;27;20049;-69
2022/04/16 12:29:29;;;;;;;5.78;3.42;;;;;;;;;;10370084;28;20042;-70
2022/04/16 12:34:29;;;;;;;2.90;2.20;;;;;;;;;;10368231;28;20512;-71
2022/04/16 12:39:30;;;;;;;3.25;2.05;;;;;;;;;;10371854;27;20046;-70
2022/04/16 12:44:30;;;;;;;3.67;2.03;;;;;;;;;;10377636;28;20502;-70
2022/04/16 12:49:30;;;;;;;2.92;2.00;;;;;;;;;;10368764;28;20046;-72
2022/04/16 12:54:30;;;;;;;2.50;2.03;;;;;;;;;;10367715;28;20054;-72
2022/04/16 12:59:31;;;;;;;4.33;1.67;;;;;;;;;;10363895;27;20046;-70
2022/04/16 13:04:33;;;;;;;2.58;1.80;;;;;;;;;;10363782;27;20049;-70
2022/04/16 13:09:33;;;;;;;3.15;1.80;;;;;;;;;;10373989;27;20051;-70
2022/04/16 13:14:33;;;;;;;7.57;2.72;;;;;;;;;;10362561;28;20374;-70
2022/04/16 13:19:34;;;;;;;2.45;2.13;;;;;;;;;;10384745;28;20031;-70
2022/04/16 13:24:38;;;;;;;2.55;2.10;;;;;;;;;;10373984;27;20102;-69
2022/04/16 13:29:38;;;;;;;1.98;1.80;;;;;;;;;;10367625;27;20566;-71
2022/04/16 13:34:40;;;;;;;3.63;1.70;;;;;;;;;;10379949;28;20170;-68
2022/04/16 13:44:59;;;;;;;13.57;10.90;;;;;;;;;;10371384;27;20046;-70
2022/04/16 13:49:59;;;;;;;5.90;4.27;;;;;;;;;;10367153;27;20037;-70
2022/04/16 13:54:59;;;;;;;3.22;2.40;;;;;;;;;;10370587;27;20050;-70
2022/04/16 14:00:00;;;;;;;1.70;1.60;;;;;;;;;;10365844;27;20041;-71
2022/04/16 14:10:19;;;;;;;16.48;13.90;;;;;;;;;;10367031;28;20049;-70
2022/04/16 14:15:19;;;;;;;13.18;7.43;;;;;;;;;;10372802;28;20414;-71
2022/04/16 14:20:19;;;;;;;13.68;9.95;;;;;;;;;;10360227;28;20421;-71
2022/04/16 14:25:21;;;;;;;5.63;4.38;;;;;;;;;;10361327;27;20054;-70
2022/04/16 14:30:21;;;;;;;3.50;3.03;;;;;;;;;;10363592;27;20042;-71
2022/04/16 14:35:21;;;;;;;34.63;28.80;;;;;;;;;;10373720;27;20054;-68
2022/04/16 14:40:23;;;;;;;10.50;8.13;;;;;;;;;;10365636;27;20093;-71
2022/04/16 14:45:24;;;;;;;5.55;4.38;;;;;;;;;;10376611;28;20061;-68
2022/04/16 14:50:24;;;;;;;5.22;3.20;;;;;;;;;;10360708;27;20083;-68
2022/04/16 14:55:25;;;;;;;2.97;2.28;;;;;;;;;;10367864;27;20049;-68
2022/04/16 15:00:25;;;;;;;3.20;2.55;;;;;;;;;;10357193;28;20144;-68
2022/04/16 15:05:26;;;;;;;3.55;2.25;;;;;;;;;;10339426;27;20061;-69
2022/04/16 15:10:26;;;;;;;2.03;1.67;;;;;;;;;;10351529;27;20112;-69
2022/04/16 15:15:27;;;;;;;4.97;3.58;;;;;;;;;;10345096;27;20050;-70
2022/04/16 15:20:29;;;;;;;2.70;1.90;;;;;;;;;;10395953;27;20420;-69
2022/04/16 15:25:30;;;;;;;2.22;1.80;;;;;;;;;;10392698;27;20050;-70
2022/04/16 15:30:30;;;;;;;1.98;1.77;;;;;;;;;;10447345;27;20049;-69
2022/04/16 15:35:31;;;;;;;2.63;1.60;;;;;;;;;;10380097;27;20042;-67
2022/04/16 15:40:31;;;;;;;2.00;1.70;;;;;;;;;;10365187;27;20053;-68
2022/04/16 15:45:31;;;;;;;2.63;1.60;;;;;;;;;;10374898;28;20376;-68
2022/04/16 15:50:32;;;;;;;1.77;1.30;;;;;;;;;;10367122;28;20049;-68
2022/04/16 15:55:32;;;;;;;1.65;1.55;;;;;;;;;;10369942;27;20288;-68
2022/04/16 16:00:32;;;;;;;2.33;1.70;;;;;;;;;;10378389;27;20135;-68
2022/04/16 16:05:33;;;;;;;4.15;3.75;;;;;;;;;;10366840;27;20061;-68
2022/04/16 16:10:33;;;;;;;3.80;3.60;;;;;;;;;;10372929;28;20057;-68
2022/04/16 16:15:33;;;;;;;4.22;3.40;;;;;;;;;;10361140;28;20284;-68
2022/04/16 16:20:34;;;;;;;3.63;3.33;;;;;;;;;;10364913;28;20049;-69
2022/04/16 16:25:35;;;;;;;3.13;2.92;;;;;;;;;;10374902;28;20065;-69
2022/04/16 16:30:35;;;;;;;2.97;2.78;;;;;;;;;;10374457;28;20042;-67
2022/04/16 16:35:35;;;;;;;2.50;2.30;;;;;;;;;;10366016;28;20605;-68
2022/04/16 16:40:36;;;;;;;2.50;2.30;;;;;;;;;;10359837;28;20064;-67
2022/04/16 16:45:36;;;;;;;2.65;2.45;;;;;;;;;;10375716;27;20405;-68
2022/04/16 16:50:37;;;;;;;2.97;2.40;;;;;;;;;;10362853;27;20082;-68
2022/04/16 16:55:37;;;;;;;3.60;2.10;;;;;;;;;;10379451;28;20053;-68
2022/04/16 17:00:38;;;;;;;2.23;1.80;;;;;;;;;;10369967;28;20060;-67
2022/04/16 17:05:38;;;;;;;2.08;1.88;;;;;;;;;;10373502;28;20093;-68
2022/04/16 17:10:44;;;;;;;2.28;1.77;;;;;;;;;;10367956;28;20038;-68
2022/04/16 17:21:03;;;;;;;1.80;1.70;;;;;;;;;;10379801;28;20046;-68
2022/04/16 17:26:04;;;;;;;2.57;1.60;;;;;;;;;;10377626;27;20050;-71
2022/04/16 17:31:05;;;;;;;2.17;1.92;;;;;;;;;;10364379;28;20034;-66
2022/04/16 17:36:06;;;;;;;3.10;1.63;;;;;;;;;;10372582;28;20477;-71
2022/04/16 17:41:06;;;;;;;8.60;2.38;;;;;;;;;;10374176;28;20066;-71
2022/04/16 17:46:06;;;;;;;3.60;1.53;;;;;;;;;;10364709;28;20497;-70
2022/04/16 17:51:07;;;;;;;2.50;1.40;;;;;;;;;;10369984;28;20042;-70
2022/04/16 17:56:07;;;;;;;2.03;1.40;;;;;;;;;;10369411;28;20128;-70
2022/04/16 18:01:08;;;;;;;2.22;1.50;;;;;;;;;;10361119;28;20108;-72
2022/04/16 18:06:08;;;;;;;2.20;1.70;;;;;;;;;;10359767;27;20147;-67
2022/04/16 18:11:09;;;;;;;1.77;1.60;;;;;;;;;;10353440;28;20053;-69
2022/04/16 18:16:09;;;;;;;2.17;1.63;;;;;;;;;;10357774;28;20364;-71
2022/04/16 18:21:09;;;;;;;4.90;1.80;;;;;;;;;;10350320;28;20765;-69
2022/04/16 18:26:11;;;;;;;1.95;1.70;;;;;;;;;;10356357;28;20058;-71
2022/04/16 18:31:12;;;;;;;1.50;1.40;;;;;;;;;;10357294;27;20038;-69
2022/04/16 18:36:12;;;;;;;2.00;1.60;;;;;;;;;;10365564;27;20307;-71
2022/04/16 18:41:13;;;;;;;2.13;1.48;;;;;;;;;;10372219;28;20049;-70
2022/04/16 18:46:14;;;;;;;1.52;1.30;;;;;;;;;;10370145;28;20450;-71
2022/04/16 18:51:16;;;;;;;2.20;1.50;;;;;;;;;;10371092;27;20091;-71
2022/04/16 18:56:17;;;;;;;1.75;1.40;;;;;;;;;;10373975;27;20048;-71
2022/04/16 19:06:52;;;;;;;2.72;1.70;;;;;;;;;;10387674;28;20552;-69
2022/04/16 19:11:59;;;;;;;1.73;1.40;;;;;;;;;;10378257;28;20461;-70
2022/04/16 19:17:00;;;;;;;2.10;1.42;;;;;;;;;;10376928;28;20739;-67
2022/04/16 19:22:00;;;;;;;3.75;1.85;;;;;;;;;;10356494;28;20050;-67
2022/04/16 19:27:02;;;;;;;1.70;1.40;;;;;;;;;;10356820;28;20053;-68
2022/04/16 19:32:03;;;;;;;4.35;1.60;;;;;;;;;;10363802;28;20532;-69
2022/04/16 19:37:04;;;;;;;4.45;1.60;;;;;;;;;;10347760;28;20083;-69
2022/04/16 19:42:04;;;;;;;3.20;1.38;;;;;;;;;;10356396;28;20042;-69
2022/04/16 19:47:04;;;;;;;4.40;1.33;;;;;;;;;;10354234;28;20048;-69
2022/04/16 19:52:04;;;;;;;2.80;1.40;;;;;;;;;;10369158;27;20513;-68
2022/04/16 19:57:05;;;;;;;2.37;1.40;;;;;;;;;;10361178;28;20042;-69
2022/04/16 20:02:05;;;;;;;5.43;1.38;;;;;;;;;;10367660;28;20288;-69
2022/04/16 20:07:06;;;;;;;11.80;1.95;;;;;;;;;;10364431;28;20054;-70
2022/04/16 20:12:06;;;;;;;6.28;1.67;;;;;;;;;;10364876;28;20046;-70
2022/04/16 20:17:06;;;;;;;4.17;1.50;;;;;;;;;;10365778;28;20071;-71
2022/04/16 20:22:07;;;;;;;6.05;1.60;;;;;;;;;;10373870;28;20050;-70
2022/04/16 20:27:08;;;;;;;4.40;1.60;;;;;;;;;;10357913;28;20053;-70
2022/04/16 20:32:08;;;;;;;2.97;1.70;;;;;;;;;;10376283;27;20405;-70
2022/04/16 20:37:09;;;;;;;3.00;1.40;;;;;;;;;;10367265;28;20064;-70
2022/04/16 20:47:28;;;;;;;2.60;1.60;;;;;;;;;;10353550;28;20063;-71
2022/04/16 20:57:47;;;;;;;3.50;1.50;;;;;;;;;;10381492;28;20062;-70
2022/04/16 21:02:47;;;;;;;2.60;1.83;;;;;;;;;;10379327;28;20044;-71
2022/04/16 21:07:48;;;;;;;2.78;1.33;;;;;;;;;;10391074;28;20060;-69
2022/04/16 21:12:48;;;;;;;4.22;1.80;;;;;;;;;;10365885;28;20057;-71
2022/04/16 21:17:48;;;;;;;3.80;1.50;;;;;;;;;;10376954;28;20048;-71
2022/04/16 21:22:53;;;;;;;3.73;1.50;;;;;;;;;;10356611;28;20046;-71
2022/04/16 21:27:54;;;;;;;2.88;1.60;;;;;;;;;;10378120;28;20077;-71
2022/04/16 21:32:54;;;;;;;3.53;1.35;;;;;;;;;;10375542;28;20125;-68
2022/04/16 21:37:54;;;;;;;4.85;1.55;;;;;;;;;;10365856;28;20041;-71
2022/04/16 21:42:57;;;;;;;3.55;1.67;;;;;;;;;;10358252;28;20459;-70
2022/04/16 21:47:58;;;;;;;1.95;1.40;;;;;;;;;;10373887;28;20118;-70
2022/04/16 21:52:58;;;;;;;2.38;1.70;;;;;;;;;;10362681;28;20075;-70
2022/04/16 21:57:59;;;;;;;2.03;1.47;;;;;;;;;;10377987;28;20045;-73
2022/04/16 22:02:59;;;;;;;3.25;1.50;;;;;;;;;;10369140;28;20038;-72
2022/04/16 22:08:00;;;;;;;2.40;1.40;;;;;;;;;;10362256;28;20141;-73
2022/04/16 22:13:00;;;;;;;1.95;1.40;;;;;;;;;;10378203;28;20285;-72
2022/04/16 22:18:00;;;;;;;1.60;1.25;;;;;;;;;;10373893;28;20068;-71
2022/04/16 22:23:01;;;;;;;1.50;1.27;;;;;;;;;;10366424;28;20056;-69
2022/04/16 22:28:02;;;;;;;1.70;1.38;;;;;;;;;;10364337;28;20060;-71
2022/04/16 22:33:02;;;;;;;2.42;1.45;;;;;;;;;;10369070;27;20046;-73
2022/04/16 22:43:22;;;;;;;2.35;1.10;;;;;;;;;;10363678;28;20054;-72
2022/04/16 22:48:23;;;;;;;3.57;1.10;;;;;;;;;;10385689;28;20055;-73
2022/04/16 22:53:25;;;;;;;2.42;1.30;;;;;;;;;;10379933;28;20459;-72
2022/04/16 22:58:25;;;;;;;1.60;1.30;;;;;;;;;;10378020;28;20050;-72
2022/04/16 23:03:25;;;;;;;3.23;1.20;;;;;;;;;;10363722;28;20072;-71
2022/04/16 23:08:26;;;;;;;2.15;1.40;;;;;;;;;;10373401;28;20046;-71
2022/04/16 23:13:28;;;;;;;1.25;1.10;;;;;;;;;;10368175;27;20132;-72
2022/04/16 23:18:29;;;;;;;2.95;1.25;;;;;;;;;;10371256;27;20047;-73
2022/04/16 23:23:30;;;;;;;1.95;1.10;;;;;;;;;;10368419;28;20066;-71
2022/04/16 23:28:30;;;;;;;1.55;1.10;;;;;;;;;;10360692;28;20049;-72
2022/04/16 23:33:31;;;;;;;1.55;1.20;;;;;;;;;;10357899;28;20056;-73
2022/04/16 23:38:31;;;;;;;2.70;1.20;;;;;;;;;;10372046;28;20048;-71
2022/04/16 23:43:31;;;;;;;2.20;1.20;;;;;;;;;;10371168;28;20084;-71
2022/04/16 23:48:32;;;;;;;1.25;1.10;;;;;;;;;;10374868;27;20058;-74
2022/04/16 23:53:32;;;;;;;1.80;1.23;;;;;;;;;;10390225;28;20042;-72
2022/04/16 23:58:34;;;;;;;1.33;1.00;;;;;;;;;;10359690;28;20111;-71
